Search for airport 
image banner adimage banner adimage banner ad
image banner ad

KBYS - Bicycle Lake Aaf

Located in Fort Irwin/Barstow, United States

ICAO - BYS, IATA - BYS

Data provided by Airmate  

General information

Coordinates: N35°16'50" W116°37'48"
Elevation is 2350 feet MSL.
Magnetic variation is 14° East
View others Airports in California

Operational data

Special qualification required
Current time UTC:
Current local time:
Weather
METAR: KBYS 240858Z AUTO 28004KT 10SM CLR 23/12 A2997 RMK AO2 SLP122 60000 T02270123 56006 $
View NOTAMs / SUP AIP / TFR affecting this airport [VIEW]
Communications frequencies: [VIEW]

Runways:

RWY identifierQFULength (ft)Width (ft)SurfaceLDA (ft)
049631175GRAVEL
229631175GRAVEL
136124175GRAVEL
316124175GRAVEL

Airport contact information

Address: Fort Irwin/Barstow United States

Satellite view of KBYS